Berlin, New Hampshire
Current Conditions -  °F | °C
As of 12:52 PM on Sunday 21 Dec 2014 (Local Time) from KBML Reporting Station
Overcast Overcast  
Wind Chill: 21°   Ceiling: 3300
Heat Index: 21°   Visibility: 10mi
Dew Point: 16°   Wind: 0mph
Humidity: 81%   Direction: NA
Pressure: 30.27"   Gusts: NA
Location:  44.47°N, 71.18°W
Report Text: KBML 211752Z AUTO 00000KT 10SM OVC033 M06/M09 A3027 RMK AO2 SLP278 T10611089 11061 21122 56017
Loading
Personal Weather Stations






























Interactive Weather Map New forecast layout! Learn more

10-Day Weather Forecast

Advertisements
Track Severe Weather on mobile